createdAt,value
2018-11-04T00:00:27.572Z,60491.38
2018-11-04T00:02:55.778Z,60496.46
2018-11-04T00:05:23.950Z,60481.21
2018-11-04T00:07:52.526Z,60499.50
2018-11-04T00:10:20.718Z,60517.80
2018-11-04T00:12:48.910Z,60542.19
2018-11-04T00:15:17.077Z,60535.07
2018-11-04T00:17:45.239Z,60513.73
2018-11-04T00:20:14.504Z,60465.97
2018-11-04T00:22:42.642Z,60498.49
2018-11-04T00:25:12.487Z,60488.33
2018-11-04T00:27:40.672Z,60540.15
2018-11-04T00:30:12.519Z,60529.99
2018-11-04T00:32:41.309Z,60516.78
2018-11-04T00:35:09.739Z,60515.77
2018-11-04T00:37:38.160Z,60513.73
2018-11-04T00:40:06.980Z,60546.25
2018-11-04T00:42:35.152Z,60507.64
2018-11-04T00:45:03.363Z,60527.96
2018-11-04T00:47:31.515Z,60538.12
2018-11-04T00:49:59.682Z,60520.85
2018-11-04T00:52:27.860Z,60514.75
2018-11-04T00:54:56.039Z,60505.60
2018-11-04T00:57:24.215Z,60506.62
2018-11-04T00:59:52.386Z,60536.09
2018-11-04T01:02:27.226Z,60510.68
2018-11-04T01:04:55.440Z,60492.39
2018-11-04T01:07:23.647Z,60523.89
2018-11-04T01:09:51.815Z,60505.60
2018-11-04T01:12:19.986Z,60501.54
2018-11-04T01:14:48.156Z,60510.68
2018-11-04T01:17:16.359Z,60518.82
2018-11-04T01:19:44.514Z,60497.47
2018-11-04T01:22:12.684Z,60513.73
2018-11-04T01:24:40.852Z,60509.67
2018-11-04T01:27:09.011Z,60534.06
2018-11-04T01:29:37.184Z,60507.64
2018-11-04T01:32:06.052Z,60509.67
2018-11-04T01:34:34.216Z,60500.52
2018-11-04T01:37:02.377Z,60493.41
2018-11-04T01:39:30.573Z,60531.01
2018-11-04T01:41:58.739Z,60515.77
2018-11-04T01:44:26.927Z,60515.77
2018-11-04T01:46:55.079Z,60487.31
2018-11-04T01:49:23.289Z,60489.34
2018-11-04T01:51:51.451Z,60512.72
2018-11-04T01:54:19.635Z,60487.31
2018-11-04T01:56:47.816Z,60532.02
2018-11-04T01:59:15.983Z,60511.70
2018-11-04T02:01:44.670Z,60511.70
2018-11-04T02:04:12.847Z,60504.59
2018-11-04T02:06:41.022Z,60528.98
2018-11-04T02:09:10.254Z,60517.80
2018-11-04T02:11:38.632Z,60520.85
2018-11-04T02:14:07.244Z,60500.52
2018-11-04T02:16:35.999Z,60501.54
2018-11-04T02:19:04.199Z,60532.02
2018-11-04T02:21:32.427Z,60513.73
2018-11-04T02:24:00.719Z,60521.86
2018-11-04T02:26:29.048Z,60547.27
2018-11-04T02:28:57.216Z,60537.11
2018-11-04T02:31:25.408Z,60503.57
2018-11-04T02:33:53.571Z,60512.72
2018-11-04T02:36:21.739Z,60520.85
2018-11-04T02:38:49.914Z,60541.17
2018-11-04T02:41:18.097Z,60513.73
2018-11-04T02:43:46.272Z,60520.85
2018-11-04T02:46:14.545Z,60532.02
2018-11-04T02:48:42.723Z,60496.46
2018-11-04T02:51:10.876Z,60489.34
2018-11-04T02:53:39.045Z,60533.04
2018-11-04T02:56:07.220Z,60532.02
2018-11-04T02:58:35.416Z,60511.70
2018-11-04T03:01:03.636Z,60499.50
2018-11-04T03:03:31.802Z,60504.59
2018-11-04T03:05:59.975Z,60509.67
2018-11-04T03:08:28.143Z,60527.96
2018-11-04T03:10:56.318Z,60499.50
2018-11-04T03:13:24.483Z,60499.50
2018-11-04T03:15:52.684Z,60516.78
2018-11-04T03:18:20.957Z,60520.85
2018-11-04T03:20:49.124Z,60499.50
2018-11-04T03:23:17.299Z,60491.38
2018-11-04T03:25:45.471Z,60508.65
2018-11-04T03:28:13.635Z,60485.28
2018-11-04T03:30:41.793Z,60494.43
2018-11-04T03:33:10.322Z,60491.38
2018-11-04T03:35:38.499Z,60528.98
2018-11-04T03:38:06.972Z,60519.83
2018-11-04T03:40:35.140Z,60489.34
2018-11-04T03:43:03.332Z,60526.95
2018-11-04T03:45:31.500Z,60510.68
2018-11-04T03:47:59.679Z,60524.91
2018-11-04T03:50:28.066Z,60504.59
2018-11-04T03:53:00.379Z,60523.89
2018-11-04T03:55:28.545Z,60526.95
2018-11-04T03:57:56.715Z,60529.99
2018-11-04T04:00:24.903Z,60541.17
2018-11-04T04:02:53.072Z,60536.09
2018-11-04T04:05:21.245Z,60485.28
2018-11-04T04:07:49.534Z,60509.67
2018-11-04T04:10:17.733Z,60501.54
2018-11-04T04:12:45.930Z,60492.39
2018-11-04T04:15:14.116Z,60483.25
2018-11-04T04:17:42.303Z,60502.55
2018-11-04T04:20:10.500Z,60486.29
2018-11-04T04:22:38.687Z,60495.44
2018-11-04T04:25:07.087Z,60499.50
2018-11-04T04:27:35.298Z,60522.88
2018-11-04T04:30:03.657Z,60493.41
2018-11-04T04:32:31.822Z,60526.95
2018-11-04T04:34:59.989Z,60499.50
2018-11-04T04:37:28.164Z,60494.43
2018-11-04T04:39:56.324Z,60474.10
2018-11-04T04:42:24.504Z,60494.43
2018-11-04T04:44:52.675Z,60505.60
2018-11-04T04:47:20.862Z,60523.89
2018-11-04T04:49:49.076Z,60522.88
2018-11-04T04:52:17.297Z,60491.38
2018-11-04T04:54:45.471Z,60502.55
2018-11-04T04:57:13.634Z,60511.70
2018-11-04T04:59:41.794Z,60493.41
2018-11-04T05:02:09.983Z,60522.88
2018-11-04T05:04:38.151Z,60520.85
2018-11-04T05:07:06.331Z,60495.44
2018-11-04T05:09:34.496Z,60480.20
2018-11-04T05:12:02.692Z,60515.77
2018-11-04T05:14:30.860Z,60487.31
2018-11-04T05:16:59.039Z,60488.33
2018-11-04T05:19:27.206Z,60502.55
2018-11-04T05:21:55.375Z,60514.75
2018-11-04T05:24:23.560Z,60483.25
2018-11-04T05:26:51.747Z,60496.46
2018-11-04T05:29:20.005Z,60495.44
2018-11-04T05:31:48.188Z,60494.43
2018-11-04T05:34:16.482Z,60500.52
2018-11-04T05:36:44.647Z,60507.64
2018-11-04T05:39:12.823Z,60498.49
2018-11-04T05:41:41.143Z,60490.36
2018-11-04T05:44:09.591Z,60492.39
2018-11-04T05:46:37.770Z,60500.52
2018-11-04T05:49:05.948Z,60517.80
2018-11-04T05:51:34.134Z,60494.43
2018-11-04T05:54:02.315Z,60507.64
2018-11-04T05:56:30.491Z,60505.60
2018-11-04T05:58:58.659Z,60490.36
2018-11-04T06:01:26.853Z,60488.33
2018-11-04T06:03:55.023Z,60495.44
2018-11-04T06:06:23.211Z,60478.16
2018-11-04T06:08:51.382Z,60517.80
2018-11-04T06:11:19.551Z,60474.10
2018-11-04T06:13:47.736Z,60516.78
2018-11-04T06:16:15.891Z,60502.55
2018-11-04T06:18:44.070Z,60491.38
2018-11-04T06:21:12.240Z,60507.64
2018-11-04T06:23:40.426Z,60495.44
2018-11-04T06:26:08.613Z,60490.36
2018-11-04T06:28:36.788Z,60518.82
2018-11-04T06:31:05.169Z,60514.75
2018-11-04T06:33:33.393Z,60493.41
2018-11-04T06:36:01.643Z,60491.38
2018-11-04T06:38:29.810Z,60486.29
2018-11-04T06:40:57.996Z,60517.80
2018-11-04T06:43:26.207Z,60474.10
2018-11-04T06:45:54.376Z,60485.28
2018-11-04T06:48:22.563Z,60505.60
2018-11-04T06:50:50.749Z,60473.09
2018-11-04T06:53:18.910Z,60493.41
2018-11-04T06:55:47.210Z,60474.10
2018-11-04T06:58:15.393Z,60504.59
2018-11-04T07:00:44.221Z,60468.00
2018-11-04T07:03:12.391Z,60524.91
2018-11-04T07:05:40.578Z,60518.82
2018-11-04T07:08:08.739Z,60503.57
2018-11-04T07:10:37.117Z,60492.39
2018-11-04T07:13:05.274Z,60483.25
2018-11-04T07:15:33.466Z,60492.39
2018-11-04T07:18:01.732Z,60525.93
2018-11-04T07:20:29.913Z,60494.43
2018-11-04T07:22:58.080Z,60494.43
2018-11-04T07:25:26.326Z,60493.41
2018-11-04T07:27:54.426Z,60503.57
2018-11-04T07:30:22.595Z,60494.43
2018-11-04T07:32:50.776Z,60499.50
2018-11-04T07:35:18.967Z,60481.21
2018-11-04T07:37:47.198Z,60491.38
2018-11-04T07:40:15.364Z,60495.44
2018-11-04T07:42:43.601Z,60481.21
2018-11-04T07:45:11.796Z,60503.57
2018-11-04T07:47:39.980Z,60498.49
2018-11-04T07:50:10.460Z,60489.34
2018-11-04T07:52:38.635Z,60489.34
2018-11-04T07:55:08.659Z,60486.29
2018-11-04T07:57:39.088Z,60502.55
2018-11-04T08:00:09.807Z,60479.18
2018-11-04T08:02:37.975Z,60480.20
2018-11-04T08:05:06.756Z,60491.38
2018-11-04T08:07:35.151Z,60490.36
2018-11-04T08:10:03.351Z,60478.16
2018-11-04T08:12:31.519Z,60490.36
2018-11-04T08:14:59.691Z,60504.59
2018-11-04T08:17:27.866Z,60515.77
2018-11-04T08:19:56.031Z,60480.20
2018-11-04T08:22:24.206Z,60498.49
2018-11-04T08:24:52.395Z,60481.21
2018-11-04T08:27:20.566Z,60483.25
2018-11-04T08:29:48.735Z,60501.54
2018-11-04T08:32:16.927Z,60500.52
2018-11-04T08:34:45.108Z,60492.39
2018-11-04T08:37:13.280Z,60464.96
2018-11-04T08:39:41.474Z,60470.04
2018-11-04T08:42:09.615Z,60523.89
2018-11-04T08:44:37.775Z,60481.21
2018-11-04T08:47:06.260Z,60488.33
2018-11-04T08:49:34.427Z,60464.96
2018-11-04T08:52:02.601Z,60474.10
2018-11-04T08:54:30.763Z,60499.50
2018-11-04T08:56:58.997Z,60469.02
2018-11-04T08:59:27.156Z,60460.89
2018-11-04T09:01:55.432Z,60480.20
2018-11-04T09:04:23.632Z,60497.47
2018-11-04T09:06:52.002Z,60481.21
2018-11-04T09:09:20.222Z,60489.34
2018-11-04T09:11:48.392Z,60492.39
2018-11-04T09:14:16.815Z,60500.52
2018-11-04T09:16:44.883Z,60501.54
2018-11-04T09:19:13.128Z,60476.13
2018-11-04T09:21:41.375Z,60469.02
2018-11-04T09:24:09.471Z,60463.94
2018-11-04T09:26:37.647Z,60471.05
2018-11-04T09:29:05.907Z,60493.41
2018-11-04T09:31:34.422Z,60486.29
2018-11-04T09:34:02.731Z,60473.09
2018-11-04T09:36:31.051Z,60471.05
2018-11-04T09:38:59.311Z,60505.60
2018-11-04T09:41:27.548Z,60478.16
2018-11-04T09:43:55.788Z,60465.97
2018-11-04T09:46:23.971Z,60464.96
2018-11-04T09:48:52.151Z,60470.04
2018-11-04T09:51:20.319Z,60511.70
2018-11-04T09:53:48.831Z,60494.43
2018-11-04T09:56:17.148Z,60483.25
2018-11-04T09:58:45.323Z,60497.47
2018-11-04T10:01:20.174Z,60490.36
2018-11-04T10:03:48.344Z,60485.28
2018-11-04T10:06:16.530Z,60470.04
2018-11-04T10:08:44.709Z,60471.05
2018-11-04T10:11:12.916Z,60493.41
2018-11-04T10:13:41.112Z,60509.67
2018-11-04T10:16:09.626Z,60493.41
2018-11-04T10:18:37.741Z,60471.05
2018-11-04T10:21:06.269Z,60486.29
2018-11-04T10:23:34.060Z,60461.91
2018-11-04T10:26:02.322Z,60470.04
2018-11-04T10:28:30.720Z,60478.16
2018-11-04T10:30:58.918Z,60462.92
2018-11-04T10:33:27.133Z,60472.07
2018-11-04T10:35:58.419Z,60462.92
2018-11-04T10:38:26.595Z,60486.29
2018-11-04T10:40:54.763Z,60477.15
2018-11-04T10:43:22.918Z,60472.07
2018-11-04T10:45:51.195Z,60463.94
2018-11-04T10:48:19.372Z,60463.94
2018-11-04T10:50:47.549Z,60459.87
2018-11-04T10:53:15.788Z,60476.13
2018-11-04T10:55:44.013Z,60471.05
2018-11-04T10:58:12.141Z,60464.96
2018-11-04T11:00:45.714Z,60479.18
2018-11-04T11:03:13.867Z,60475.12
2018-11-04T11:05:42.035Z,60480.20
2018-11-04T11:08:10.204Z,60495.44
2018-11-04T11:10:38.367Z,60478.16
2018-11-04T11:13:06.647Z,60455.81
2018-11-04T11:15:34.810Z,60444.63
2018-11-04T11:18:02.987Z,60473.09
2018-11-04T11:20:31.169Z,60445.65
2018-11-04T11:22:59.467Z,60459.87
2018-11-04T11:25:27.510Z,60481.21
2018-11-04T11:27:55.738Z,60496.46
2018-11-04T11:30:23.940Z,60477.15
2018-11-04T11:32:52.106Z,60456.82
2018-11-04T11:35:20.262Z,60482.23
2018-11-04T11:37:48.520Z,60453.78
2018-11-04T11:40:16.640Z,60482.23
2018-11-04T11:42:44.807Z,60455.81
2018-11-04T11:45:12.992Z,60480.20
2018-11-04T11:47:41.192Z,60450.73
2018-11-04T11:50:09.691Z,60449.71
2018-11-04T11:52:38.142Z,60449.71
2018-11-04T11:55:06.481Z,60495.44
2018-11-04T11:57:34.771Z,60440.57
2018-11-04T12:00:02.971Z,60441.58
2018-11-04T12:02:31.160Z,60459.87
2018-11-04T12:05:06.012Z,60442.60
2018-11-04T12:07:34.191Z,60457.84
2018-11-04T12:10:02.351Z,60474.10
2018-11-04T12:12:30.535Z,60462.92
2018-11-04T12:14:58.729Z,60452.76
2018-11-04T12:17:26.883Z,60454.79
2018-11-04T12:19:55.143Z,60471.05
2018-11-04T12:22:23.324Z,60457.84
2018-11-04T12:24:51.510Z,60475.12
2018-11-04T12:27:19.708Z,60463.94
2018-11-04T12:29:47.895Z,60468.00
2018-11-04T12:32:16.082Z,60459.87
2018-11-04T12:34:44.251Z,60440.57
2018-11-04T12:37:12.471Z,60429.39
2018-11-04T12:39:40.696Z,60463.94
2018-11-04T12:42:08.901Z,60453.78
2018-11-04T12:44:37.166Z,60449.71
2018-11-04T12:47:05.607Z,60443.61
2018-11-04T12:49:33.779Z,60452.76
2018-11-04T12:52:02.049Z,60442.60
2018-11-04T12:54:30.281Z,60448.70
2018-11-04T12:56:58.462Z,60447.68
2018-11-04T12:59:26.692Z,60458.86
2018-11-04T13:01:54.949Z,60429.39
2018-11-04T13:04:23.062Z,60450.73
2018-11-04T13:06:51.263Z,60439.55
2018-11-04T13:09:19.650Z,60454.79
2018-11-04T13:11:47.845Z,60450.73
2018-11-04T13:14:16.070Z,60432.44
2018-11-04T13:16:44.243Z,60445.65
2018-11-04T13:19:12.620Z,60434.47
2018-11-04T13:21:40.796Z,60432.44
2018-11-04T13:24:10.226Z,60436.50
2018-11-04T13:26:38.384Z,60431.42
2018-11-04T13:29:07.213Z,60449.71
2018-11-04T13:31:36.342Z,60430.40
2018-11-04T13:34:05.011Z,60459.87
2018-11-04T13:36:33.668Z,60430.40
2018-11-04T13:39:02.572Z,60425.32
2018-11-04T13:41:31.070Z,60422.27
2018-11-04T13:43:59.538Z,60452.76
2018-11-04T13:46:28.419Z,60454.79
2018-11-04T13:48:57.978Z,60438.53
2018-11-04T13:51:26.545Z,60438.53
2018-11-04T13:53:54.779Z,60445.65
2018-11-04T13:56:23.193Z,60454.79
2018-11-04T13:58:52.919Z,60438.53
2018-11-04T14:01:22.483Z,60431.42
2018-11-04T14:03:51.800Z,60434.47
2018-11-04T14:06:19.978Z,60439.55
2018-11-04T14:08:48.445Z,60466.99
2018-11-04T14:11:16.623Z,60452.76
2018-11-04T14:13:44.830Z,60439.55
2018-11-04T14:16:13.055Z,60438.53
2018-11-04T14:18:41.435Z,60444.63
2018-11-04T14:21:09.603Z,60452.76
2018-11-04T14:23:37.838Z,60421.26
2018-11-04T14:26:06.859Z,60439.55
2018-11-04T14:28:35.045Z,60445.65
2018-11-04T14:31:03.308Z,60453.78
2018-11-04T14:33:31.439Z,60429.39
2018-11-04T14:35:59.644Z,60463.94
2018-11-04T14:38:27.850Z,60442.60
2018-11-04T14:40:56.075Z,60429.39
2018-11-04T14:43:24.269Z,60436.50
2018-11-04T14:45:52.552Z,60433.45
2018-11-04T14:48:20.722Z,60420.24
2018-11-04T14:50:48.991Z,60431.42
2018-11-04T14:53:17.178Z,60443.61
2018-11-04T14:55:45.491Z,60447.68
2018-11-04T14:58:13.718Z,60432.44
2018-11-04T15:00:41.908Z,60478.16
2018-11-04T15:03:10.087Z,60455.81
2018-11-04T15:05:38.325Z,60443.61
2018-11-04T15:08:06.556Z,60456.82
2018-11-04T15:10:34.787Z,60455.81
2018-11-04T15:13:03.027Z,60453.78
2018-11-04T15:15:31.367Z,60431.42
2018-11-04T15:17:59.638Z,60444.63
2018-11-04T15:20:28.086Z,60439.55
2018-11-04T15:22:56.291Z,60446.66
2018-11-04T15:25:24.506Z,60431.42
2018-11-04T15:27:52.724Z,60422.27
2018-11-04T15:30:20.922Z,60456.82
2018-11-04T15:32:49.162Z,60453.78
2018-11-04T15:35:17.812Z,60446.66
2018-11-04T15:37:46.173Z,60459.87
2018-11-04T15:40:15.538Z,60447.68
2018-11-04T15:42:43.688Z,60479.18
2018-11-04T15:45:13.949Z,60444.63
2018-11-04T15:47:42.515Z,60459.87
2018-11-04T15:50:12.971Z,60449.71
2018-11-04T15:52:41.670Z,60457.84
2018-11-04T15:55:10.298Z,60430.40
2018-11-04T15:57:38.697Z,60444.63
2018-11-04T16:00:09.688Z,60432.44
2018-11-04T16:02:38.143Z,60442.60
2018-11-04T16:05:07.011Z,60446.66
2018-11-04T16:07:35.667Z,60450.73
2018-11-04T16:35:38.767Z,60463.94
2018-11-04T16:38:06.992Z,60472.07
2018-11-04T16:40:35.160Z,60472.07
2018-11-04T16:43:03.336Z,60423.29
2018-11-04T16:45:31.579Z,60469.02
2018-11-04T16:47:59.978Z,60439.55
2018-11-04T16:50:28.436Z,60452.76
2018-11-04T16:52:57.075Z,60463.94
2018-11-04T16:55:25.419Z,60444.63
2018-11-04T16:57:53.671Z,60442.60
2018-11-04T17:00:22.081Z,60446.66
2018-11-04T17:02:50.498Z,60442.60
2018-11-04T17:05:18.899Z,60447.68
2018-11-04T17:07:47.300Z,60463.94
2018-11-04T17:10:15.586Z,60453.78
2018-11-04T17:12:43.939Z,60453.78
2018-11-04T17:15:13.603Z,60443.61
2018-11-04T17:17:41.879Z,60449.71
2018-11-04T17:20:15.339Z,60445.65
2018-11-04T17:22:44.152Z,60473.09
2018-11-04T17:25:12.735Z,60457.84
2018-11-04T17:27:41.178Z,60486.29
2018-11-04T17:30:15.550Z,60486.29
2018-11-04T17:32:44.051Z,60458.86
2018-11-04T17:35:13.531Z,60443.61
2018-11-04T17:37:42.631Z,60449.71
2018-11-04T17:40:11.823Z,60473.09
2018-11-04T17:42:40.074Z,60462.92
2018-11-04T17:45:09.831Z,60491.38
2018-11-04T17:47:38.329Z,60473.09
2018-11-04T17:50:09.080Z,60478.16
2018-11-04T17:52:37.408Z,60481.21
2018-11-04T17:55:06.289Z,60462.92
2018-11-04T17:57:34.688Z,60459.87
2018-11-04T18:00:03.121Z,60475.12
2018-11-04T18:02:31.483Z,60489.34
2018-11-04T18:05:00.093Z,60476.13
2018-11-04T18:07:28.671Z,60476.13
2018-11-04T18:09:57.178Z,60452.76
2018-11-04T18:12:26.001Z,60456.82
2018-11-04T18:14:54.587Z,60474.10
2018-11-04T18:17:22.751Z,60481.21
2018-11-04T18:19:52.046Z,60473.09
2018-11-04T18:22:20.256Z,60457.84
2018-11-04T18:24:48.399Z,60452.76
2018-11-04T18:27:16.587Z,60487.31
2018-11-04T18:29:44.766Z,60462.92
2018-11-04T18:32:13.015Z,60473.09
2018-11-04T18:34:41.164Z,60475.12
2018-11-04T18:37:09.326Z,60465.97
2018-11-04T18:39:37.603Z,60486.29
2018-11-04T18:42:05.933Z,60473.09
2018-11-04T18:44:34.199Z,60471.05
2018-11-04T18:47:02.266Z,60506.62
2018-11-04T18:49:30.475Z,60474.10
2018-11-04T18:51:58.719Z,60464.96
2018-11-04T18:54:26.922Z,60482.23
2018-11-04T18:56:55.256Z,60470.04
2018-11-04T18:59:23.467Z,60471.05
2018-11-04T19:01:51.670Z,60479.18
2018-11-04T19:04:20.004Z,60469.02
2018-11-04T19:06:48.394Z,60498.49
2018-11-04T19:09:16.817Z,60490.36
2018-11-04T19:11:46.015Z,60485.28
2018-11-04T19:14:14.290Z,60475.12
2018-11-04T19:16:42.635Z,60477.15
2018-11-04T19:19:11.342Z,60472.07
2018-11-04T19:21:39.723Z,60487.31
2018-11-04T19:24:07.996Z,60476.13
2018-11-04T19:26:36.387Z,60491.38
2018-11-04T19:29:04.694Z,60480.20
2018-11-04T19:31:33.081Z,60495.44
2018-11-04T19:34:01.528Z,60490.36
2018-11-04T19:36:29.831Z,60470.04
2018-11-04T19:38:58.101Z,60490.36
2018-11-04T19:41:26.613Z,60475.12
2018-11-04T19:43:55.086Z,60483.25
2018-11-04T19:46:23.342Z,60478.16
2018-11-04T19:48:51.652Z,60475.12
2018-11-04T19:51:19.884Z,60465.97
2018-11-04T19:53:48.131Z,60486.29
2018-11-04T19:56:16.413Z,60521.86
2018-11-04T19:58:44.805Z,60465.97
2018-11-04T20:01:13.164Z,60470.04
2018-11-04T20:03:41.387Z,60479.18
2018-11-04T20:06:09.808Z,60494.43
2018-11-04T20:08:42.063Z,60476.13
2018-11-04T20:11:10.356Z,60491.38
2018-11-04T20:13:44.109Z,60514.75
2018-11-04T20:16:12.310Z,60491.38
2018-11-04T20:18:45.967Z,60477.15
2018-11-04T20:21:14.225Z,60476.13
2018-11-04T20:23:42.420Z,60489.34
2018-11-04T20:26:11.863Z,60496.46
2018-11-04T20:28:40.110Z,60470.04
2018-11-04T20:31:08.384Z,60487.31
2018-11-04T20:33:36.619Z,60486.29
2018-11-04T20:36:04.848Z,60496.46
2018-11-04T20:38:38.317Z,60511.70
2018-11-04T20:41:11.743Z,60485.28
2018-11-04T20:43:39.947Z,60501.54
2018-11-04T20:46:08.533Z,60507.64
2018-11-04T20:48:42.021Z,60487.31
2018-11-04T20:51:10.299Z,60474.10
2018-11-04T20:53:38.548Z,60498.49
2018-11-04T20:56:12.185Z,60491.38
2018-11-04T20:58:40.483Z,60477.15
2018-11-04T21:01:08.727Z,60524.91
2018-11-04T21:03:37.031Z,60475.12
2018-11-04T21:06:05.395Z,60492.39
2018-11-04T21:08:33.693Z,60465.97
2018-11-04T21:11:01.892Z,60503.57
2018-11-04T21:13:30.582Z,60473.09
2018-11-04T21:15:58.983Z,60503.57
2018-11-04T21:18:27.145Z,60483.25
2018-11-04T21:20:55.399Z,60526.95
2018-11-04T21:23:23.659Z,60486.29
2018-11-04T21:25:51.945Z,60488.33
2018-11-04T21:28:20.408Z,60512.72
2018-11-04T21:30:48.448Z,60497.47
2018-11-04T21:33:16.622Z,60484.26
2018-11-04T21:35:44.799Z,60480.20
2018-11-04T21:38:12.963Z,60506.62
2018-11-04T21:40:41.160Z,60499.50
2018-11-04T21:43:09.483Z,60490.36
2018-11-04T21:45:37.498Z,60505.60
2018-11-04T21:48:06.015Z,60504.59
2018-11-04T21:50:34.281Z,60489.34
2018-11-04T21:53:02.460Z,60477.15
2018-11-04T21:55:30.788Z,60512.72
2018-11-04T21:57:58.819Z,60487.31
2018-11-04T22:00:27.011Z,60518.82
2018-11-04T22:02:55.456Z,60500.52
2018-11-04T22:05:23.399Z,60512.72
2018-11-04T22:07:51.601Z,60506.62
2018-11-04T22:10:19.827Z,60509.67
2018-11-04T22:12:47.970Z,60502.55
2018-11-04T22:15:16.142Z,60501.54
2018-11-04T22:17:44.342Z,60514.75
2018-11-04T22:20:13.364Z,60487.31
2018-11-04T22:22:41.563Z,60517.80
2018-11-04T22:25:10.640Z,60534.06
2018-11-04T22:27:38.802Z,60539.14
2018-11-04T22:30:08.098Z,60523.89
2018-11-04T22:32:36.683Z,60522.88
2018-11-04T22:35:05.086Z,60493.41
2018-11-04T22:37:33.246Z,60495.44
2018-11-04T22:40:01.411Z,60525.93
2018-11-04T22:42:29.627Z,60513.73
2018-11-04T22:44:57.812Z,60515.77
2018-11-04T22:47:25.971Z,60512.72
2018-11-04T22:49:54.146Z,60524.91
2018-11-04T22:52:22.311Z,60524.91
2018-11-04T22:54:50.492Z,60525.93
2018-11-04T22:57:18.663Z,60516.78
2018-11-04T22:59:46.839Z,60509.67
2018-11-04T23:02:15.051Z,60528.98
2018-11-04T23:04:48.451Z,60495.44
2018-11-04T23:07:16.674Z,60494.43
2018-11-04T23:09:44.899Z,60483.25
2018-11-04T23:12:13.084Z,60503.57
2018-11-04T23:14:41.286Z,60544.22
2018-11-04T23:17:09.459Z,60516.78
2018-11-04T23:19:37.628Z,60490.36
2018-11-04T23:22:05.928Z,60529.99
2018-11-04T23:24:34.112Z,60513.73
2018-11-04T23:27:02.411Z,60507.64
2018-11-04T23:29:30.450Z,60513.73
2018-11-04T23:31:58.621Z,60526.95
2018-11-04T23:34:26.804Z,60506.62
2018-11-04T23:36:54.987Z,60507.64
2018-11-04T23:39:23.160Z,60506.62
2018-11-04T23:41:51.334Z,60508.65
2018-11-04T23:44:19.538Z,60508.65
2018-11-04T23:46:47.718Z,60522.88
2018-11-04T23:49:15.915Z,60523.89
2018-11-04T23:51:44.110Z,60504.59
2018-11-04T23:54:12.881Z,60481.21
2018-11-04T23:56:41.067Z,60518.82
2018-11-04T23:59:09.255Z,60513.73
